Time;durP1;ratioP1;P1;durP2;ratioP2;P2;SDS_P1;SDS_P2;PMS_P1;PMS_P2;Temp;Humidity;BMP_temperature;BMP_pressure;BME280_temperature;BME280_humidity;BME280_pressure;Samples;Min_cycle;Max_cycle;Signal;HPM_P1;HPM_P2
2021/03/26 00:00:38;;;;;;;7.50;1.23;;;9.90;99.90;;;;;;5001419;28;20203;-82
2021/03/26 00:03:07;;;;;;;4.30;1.83;;;9.90;99.90;;;;;;5002355;28;20203;-78
2021/03/26 00:05:34;;;;;;;4.70;1.87;;;9.90;99.90;;;;;;5002063;28;20214;-78
2021/03/26 00:08:01;;;;;;;3.30;1.23;;;9.90;99.90;;;;;;5000957;28;20908;-78
2021/03/26 00:10:27;;;;;;;3.67;1.20;;;9.80;99.90;;;;;;5001968;28;20227;-77
2021/03/26 00:12:53;;;;;;;6.63;1.27;;;9.80;99.90;;;;;;5010597;28;20210;-92
2021/03/26 00:15:19;;;;;;;5.10;1.10;;;9.80;99.90;;;;;;5027681;28;20654;-93
2021/03/26 00:17:46;;;;;;;6.57;2.10;;;9.80;99.90;;;;;;5027279;28;20211;-84
2021/03/26 00:20:14;;;;;;;3.13;1.57;;;9.80;99.90;;;;;;5027405;28;20211;-88
2021/03/26 00:22:40;;;;;;;8.03;1.40;;;9.70;99.90;;;;;;5028348;28;20198;-88
2021/03/26 00:25:08;;;;;;;6.00;1.80;;;9.60;99.90;;;;;;4993727;28;20219;-83
2021/03/26 00:27:35;;;;;;;2.50;1.40;;;9.50;99.90;;;;;;4983741;28;20623;-79
2021/03/26 00:30:01;;;;;;;8.03;1.60;;;9.40;99.90;;;;;;4990703;28;20204;-92
2021/03/26 00:32:28;;;;;;;4.43;1.40;;;9.40;99.90;;;;;;5006314;28;20215;-91
2021/03/26 00:34:54;;;;;;;4.80;2.00;;;9.30;99.90;;;;;;5011348;28;20199;-94
2021/03/26 00:37:22;;;;;;;5.57;1.73;;;9.20;99.90;;;;;;5009863;28;20215;-87
2021/03/26 00:39:48;;;;;;;5.60;2.40;;;9.20;99.90;;;;;;5010493;28;20234;-84
2021/03/26 00:42:15;;;;;;;4.00;1.77;;;9.10;99.90;;;;;;5008070;28;20262;-91
2021/03/26 00:44:41;;;;;;;8.40;1.70;;;9.00;99.90;;;;;;5004151;28;20249;-77
2021/03/26 00:47:08;;;;;;;5.33;1.40;;;9.00;99.90;;;;;;5002998;28;20227;-88
2021/03/26 00:49:34;;;;;;;4.53;2.17;;;8.90;99.90;;;;;;5009060;28;20275;-94
2021/03/26 00:52:00;;;;;;;6.20;1.87;;;8.80;99.90;;;;;;5009925;28;20855;-85
2021/03/26 00:54:28;;;;;;;3.67;1.07;;;8.70;99.90;;;;;;5010449;28;20187;-94
2021/03/26 00:56:54;;;;;;;5.40;2.07;;;8.70;99.90;;;;;;5010151;28;20808;-86
2021/03/26 00:59:20;;;;;;;4.67;1.70;;;8.70;99.90;;;;;;5008221;28;20206;-88
2021/03/26 01:01:46;;;;;;;4.57;1.57;;;8.60;99.90;;;;;;4998641;28;20208;-90
2021/03/26 01:04:13;;;;;;;7.30;1.90;;;8.60;99.90;;;;;;4993081;28;20263;-79
2021/03/26 01:06:39;;;;;;;5.80;1.83;;;8.50;99.90;;;;;;4991041;28;20230;-93
2021/03/26 01:09:07;;;;;;;6.67;2.20;;;8.50;99.90;;;;;;4997332;28;20211;-93
2021/03/26 01:11:36;;;;;;;3.40;1.90;;;8.50;99.90;;;;;;5013983;28;20226;-88
2021/03/26 01:14:03;;;;;;;4.40;1.70;;;8.50;99.90;;;;;;5012663;28;20507;-92
2021/03/26 01:16:29;;;;;;;4.30;1.93;;;8.40;99.90;;;;;;5013691;28;20203;-93
2021/03/26 01:18:56;;;;;;;7.87;2.27;;;8.50;99.90;;;;;;5014226;28;20275;-91
2021/03/26 01:21:25;;;;;;;5.83;2.30;;;8.50;99.90;;;;;;5012521;28;20215;-79
2021/03/26 01:23:51;;;;;;;4.90;1.70;;;8.60;99.90;;;;;;5027756;28;20257;-92
2021/03/26 01:26:18;;;;;;;3.23;1.70;;;8.60;99.90;;;;;;5032746;28;20237;-93
2021/03/26 01:28:45;;;;;;;5.07;1.80;;;8.60;99.90;;;;;;5027366;28;20214;-92
2021/03/26 01:31:12;;;;;;;4.40;1.60;;;8.70;99.90;;;;;;5012663;28;20215;-92
2021/03/26 01:33:38;;;;;;;8.67;2.00;;;8.70;99.90;;;;;;5011928;28;20214;-94
2021/03/26 01:36:06;;;;;;;6.67;2.00;;;8.70;99.90;;;;;;5013693;28;20203;-94
2021/03/26 01:38:32;;;;;;;6.47;1.90;;;8.70;99.90;;;;;;4996182;28;20212;-93
2021/03/26 01:41:01;;;;;;;6.70;2.07;;;8.70;99.90;;;;;;4992893;28;20204;-92
2021/03/26 01:43:31;;;;;;;9.97;2.40;;;8.70;99.90;;;;;;5005135;28;20213;-92
2021/03/26 01:45:58;;;;;;;7.10;1.80;;;8.60;99.90;;;;;;5012655;28;20223;-93
2021/03/26 01:48:28;;;;;;;5.93;1.90;;;8.70;99.90;;;;;;5011108;28;20199;-88
2021/03/26 01:50:55;;;;;;;9.47;2.87;;;8.70;99.90;;;;;;5014390;28;20206;-78
2021/03/26 01:53:22;;;;;;;5.30;2.23;;;8.70;99.90;;;;;;5010693;28;20203;-78
2021/03/26 01:55:50;;;;;;;3.37;2.27;;;8.70;99.90;;;;;;5011498;28;20285;-93
2021/03/26 01:58:19;;;;;;;3.07;1.60;;;8.70;99.90;;;;;;5007590;28;20199;-78
2021/03/26 02:00:49;;;;;;;10.27;2.60;;;8.70;99.90;;;;;;5003365;28;20218;-78
2021/03/26 02:03:20;;;;;;;4.90;2.20;;;8.70;99.90;;;;;;5006170;28;20211;-78
2021/03/26 02:05:47;;;;;;;8.03;2.73;;;8.70;99.90;;;;;;5023951;28;20592;-80
2021/03/26 02:08:15;;;;;;;4.47;1.90;;;8.60;99.90;;;;;;5007444;28;20207;-79
2021/03/26 02:10:43;;;;;;;6.90;2.10;;;8.60;99.90;;;;;;5003218;28;20231;-78
2021/03/26 02:13:19;;;;;;;7.60;2.47;;;8.60;99.90;;;;;;5006450;28;20207;-79
2021/03/26 02:15:47;;;;;;;3.03;1.93;;;8.60;99.90;;;;;;5008750;28;20211;-92
2021/03/26 02:18:19;;;;;;;3.40;2.17;;;8.60;99.90;;;;;;5011793;28;20203;-87
2021/03/26 02:20:49;;;;;;;10.90;3.00;;;8.50;99.90;;;;;;5011332;28;20219;-93
2021/03/26 02:23:19;;;;;;;7.63;2.00;;;8.50;99.90;;;;;;5009099;28;20192;-92
2021/03/26 02:25:46;;;;;;;7.67;2.40;;;8.50;99.90;;;;;;5010749;28;20219;-93
2021/03/26 02:28:14;;;;;;;9.23;2.60;;;8.50;99.90;;;;;;5007161;28;20207;-80
2021/03/26 02:30:43;;;;;;;5.13;2.80;;;8.40;99.90;;;;;;5006983;28;20274;-81
2021/03/26 02:33:09;;;;;;;5.97;2.50;;;8.40;99.90;;;;;;5006747;28;20192;-93
2021/03/26 02:35:38;;;;;;;4.13;2.50;;;8.40;99.90;;;;;;5005716;28;20210;-88
2021/03/26 02:38:11;;;;;;;7.93;2.80;;;8.40;99.90;;;;;;5006791;28;20210;-85
2021/03/26 02:40:41;;;;;;;8.73;2.80;;;8.40;99.90;;;;;;5003004;28;20211;-77
2021/03/26 02:43:22;;;;;;;11.17;3.70;;;8.40;99.90;;;;;;5006209;28;20222;-85
2021/03/26 02:45:56;;;;;;;6.90;3.20;;;8.30;99.90;;;;;;5006363;28;20296;-80
2021/03/26 02:48:31;;;;;;;11.20;3.20;;;8.40;99.90;;;;;;5005058;28;20556;-82
2021/03/26 02:51:05;;;;;;;12.37;3.83;;;8.30;99.90;;;;;;5006448;28;20249;-84
2021/03/26 02:53:41;;;;;;;6.70;3.37;;;8.30;99.90;;;;;;5003822;28;20200;-79
2021/03/26 02:56:14;;;;;;;8.57;3.13;;;8.30;99.90;;;;;;5003370;28;20241;-78
2021/03/26 02:58:47;;;;;;;8.07;3.77;;;8.30;99.90;;;;;;5005309;28;20894;-85
2021/03/26 03:01:18;;;;;;;7.17;3.80;;;8.30;99.90;;;;;;5008210;28;20227;-83
2021/03/26 03:03:49;;;;;;;8.67;4.50;;;8.30;99.90;;;;;;5007706;28;20196;-82
2021/03/26 03:06:23;;;;;;;7.53;3.20;;;8.30;99.90;;;;;;5008565;28;20251;-80
2021/03/26 03:08:51;;;;;;;7.93;3.80;;;8.30;99.90;;;;;;5008842;28;20221;-91
2021/03/26 03:11:23;;;;;;;7.97;3.93;;;8.30;99.90;;;;;;5007990;28;20223;-87
2021/03/26 03:13:55;;;;;;;10.87;4.37;;;8.30;99.90;;;;;;5008719;28;20191;-94
2021/03/26 03:16:24;;;;;;;13.00;5.20;;;8.30;99.90;;;;;;5010460;28;20777;-81
2021/03/26 03:18:56;;;;;;;6.40;3.90;;;8.30;99.90;;;;;;5009656;28;20200;-79
2021/03/26 03:21:33;;;;;;;9.47;5.17;;;8.30;99.90;;;;;;5009329;28;20666;-93
2021/03/26 03:24:09;;;;;;;12.40;4.73;;;8.30;99.90;;;;;;4994951;28;20213;-87
2021/03/26 03:26:44;;;;;;;6.83;5.20;;;8.30;99.90;;;;;;4989047;28;20220;-89
2021/03/26 03:29:16;;;;;;;10.53;5.13;;;8.30;99.90;;;;;;4999695;28;20492;-81
2021/03/26 03:31:49;;;;;;;17.33;6.77;;;8.30;99.90;;;;;;5004801;28;20207;-85
2021/03/26 03:34:26;;;;;;;9.30;4.50;;;8.30;99.90;;;;;;5007463;28;20221;-84
2021/03/26 03:37:05;;;;;;;10.73;4.67;;;8.30;99.90;;;;;;5008731;28;20295;-92
2021/03/26 03:39:39;;;;;;;6.90;4.53;;;8.30;99.90;;;;;;5020480;28;20741;-89
2021/03/26 03:42:09;;;;;;;10.63;4.73;;;8.30;99.90;;;;;;5025609;28;20202;-77
2021/03/26 03:44:41;;;;;;;7.97;4.63;;;8.40;99.90;;;;;;5026950;28;20499;-86
2021/03/26 03:47:13;;;;;;;10.83;6.20;;;8.40;99.90;;;;;;5023638;28;20227;-88
2021/03/26 03:49:49;;;;;;;6.83;4.50;;;8.40;99.90;;;;;;5008024;28;20192;-90
2021/03/26 03:52:23;;;;;;;11.97;4.80;;;8.40;99.90;;;;;;5009471;28;20195;-87
2021/03/26 03:54:57;;;;;;;15.63;5.33;;;8.40;99.90;;;;;;5007454;28;20191;-88
2021/03/26 03:57:29;;;;;;;7.73;5.43;;;8.40;99.90;;;;;;5007392;28;20226;-93
2021/03/26 04:00:03;;;;;;;9.33;4.63;;;8.40;99.90;;;;;;5007472;28;20218;-86
2021/03/26 04:02:34;;;;;;;8.03;4.90;;;8.40;99.90;;;;;;5006516;28;20218;-82
2021/03/26 04:05:08;;;;;;;9.30;4.87;;;8.40;99.90;;;;;;5004703;28;20254;-79
2021/03/26 04:07:41;;;;;;;10.90;5.63;;;8.40;99.90;;;;;;5002488;28;20501;-84
2021/03/26 04:10:12;;;;;;;7.40;4.40;;;8.40;99.90;;;;;;5013174;28;20636;-79
2021/03/26 04:12:42;;;;;;;10.77;5.87;;;8.40;99.90;;;;;;5028646;28;20187;-91
2021/03/26 04:15:14;;;;;;;12.63;5.50;;;8.50;99.90;;;;;;5024481;28;20583;-79
2021/03/26 04:17:46;;;;;;;14.30;6.07;;;8.40;99.90;;;;;;5007880;28;20386;-81
2021/03/26 04:20:19;;;;;;;8.87;5.50;;;8.40;99.90;;;;;;5004885;28;20195;-79
2021/03/26 04:22:51;;;;;;;10.13;5.80;;;8.40;99.90;;;;;;5004763;28;20365;-79
2021/03/26 04:25:22;;;;;;;8.70;5.43;;;8.40;99.90;;;;;;5004456;28;20203;-80
2021/03/26 04:27:55;;;;;;;11.70;5.83;;;8.40;99.90;;;;;;5021614;28;20309;-82
2021/03/26 04:30:26;;;;;;;7.60;5.63;;;8.40;99.90;;;;;;5024868;28;20654;-85
2021/03/26 04:32:54;;;;;;;10.13;6.37;;;8.40;99.90;;;;;;5023983;28;20213;-80
2021/03/26 04:35:21;;;;;;;12.87;6.80;;;8.40;99.90;;;;;;5023847;28;20209;-79
2021/03/26 04:37:53;;;;;;;12.77;6.87;;;8.30;99.90;;;;;;5026191;28;20213;-83
2021/03/26 04:40:25;;;;;;;12.83;7.10;;;8.30;99.90;;;;;;5029872;28;20206;-91
2021/03/26 04:43:00;;;;;;;11.37;6.83;;;8.30;99.90;;;;;;5032118;28;20191;-92
2021/03/26 04:45:33;;;;;;;11.90;7.10;;;8.30;99.90;;;;;;5011550;28;20198;-82
2021/03/26 04:48:11;;;;;;;11.87;7.37;;;8.30;99.90;;;;;;5008752;28;20263;-94
2021/03/26 04:50:41;;;;;;;14.43;7.60;;;8.30;99.90;;;;;;4993560;28;20775;-93
2021/03/26 04:53:15;;;;;;;15.30;8.03;;;8.30;99.90;;;;;;4993384;28;20471;-83
2021/03/26 04:55:48;;;;;;;14.63;8.23;;;8.30;99.90;;;;;;4994720;28;20263;-89
2021/03/26 04:58:18;;;;;;;12.53;7.70;;;8.30;99.90;;;;;;4998439;28;20220;-95
2021/03/26 05:00:48;;;;;;;11.00;8.17;;;8.40;99.90;;;;;;5011474;28;20708;-90
2021/03/26 05:03:19;;;;;;;13.50;8.40;;;8.30;99.90;;;;;;5011393;28;20211;-81
2021/03/26 05:05:52;;;;;;;14.00;9.23;;;8.30;99.90;;;;;;5026739;28;20586;-82
2021/03/26 05:08:22;;;;;;;13.27;9.13;;;8.30;99.90;;;;;;5011907;28;20203;-86
2021/03/26 05:10:51;;;;;;;13.37;8.87;;;8.30;99.90;;;;;;5007570;28;20282;-79
2021/03/26 05:13:25;;;;;;;12.20;9.20;;;8.30;99.90;;;;;;4988809;28;20200;-77
2021/03/26 05:15:57;;;;;;;15.77;8.83;;;8.30;99.90;;;;;;4990823;28;20208;-88
2021/03/26 05:18:28;;;;;;;17.07;9.63;;;8.30;99.90;;;;;;4993115;28;20339;-78
2021/03/26 05:20:58;;;;;;;13.23;9.00;;;8.30;99.90;;;;;;5005538;28;20666;-76
2021/03/26 05:23:30;;;;;;;16.23;9.00;;;8.30;99.90;;;;;;5029408;28;20356;-82
2021/03/26 05:25:59;;;;;;;15.83;10.00;;;8.30;99.90;;;;;;5030937;28;20194;-89
2021/03/26 05:28:28;;;;;;;12.00;9.23;;;8.30;99.90;;;;;;5029179;28;20214;-92
2021/03/26 05:30:57;;;;;;;15.90;10.77;;;8.30;99.90;;;;;;5032304;28;20281;-92
2021/03/26 05:33:29;;;;;;;17.87;9.87;;;8.30;99.90;;;;;;5033451;28;20229;-91
2021/03/26 05:36:00;;;;;;;16.73;10.33;;;8.40;99.90;;;;;;5033246;28;20213;-93
2021/03/26 05:38:29;;;;;;;17.37;10.20;;;8.30;99.90;;;;;;5014712;28;20219;-93
2021/03/26 05:41:19;;;;;;;17.17;10.57;;;8.30;99.90;;;;;;5004991;28;20630;-92
2021/03/26 05:44:16;;;;;;;16.13;10.73;;;8.30;99.90;;;;;;5013852;28;20254;-93
2021/03/26 05:46:59;;;;;;;14.60;9.53;;;8.30;99.90;;;;;;4995305;28;20954;-92
2021/03/26 05:49:34;;;;;;;17.47;10.57;;;8.30;99.90;;;;;;4994109;28;20196;-91
2021/03/26 05:52:33;;;;;;;18.27;11.20;;;8.30;99.90;;;;;;4994191;28;20261;-93
2021/03/26 05:55:11;;;;;;;13.63;9.43;;;8.40;99.90;;;;;;5006895;28;20207;-93
2021/03/26 05:57:45;;;;;;;15.97;9.53;;;8.30;99.90;;;;;;5014831;28;20187;-90
2021/03/26 06:00:48;;;;;;;14.70;9.97;;;8.40;99.90;;;;;;5012325;28;20781;-89
2021/03/26 06:03:34;;;;;;;15.03;10.63;;;8.40;99.90;;;;;;5012950;28;20213;-92
2021/03/26 06:06:29;;;;;;;18.67;11.33;;;8.40;99.90;;;;;;5009641;28;20196;-84
2021/03/26 06:09:15;;;;;;;20.20;11.17;;;8.40;99.90;;;;;;4982288;28;20562;-90
2021/03/26 06:12:08;;;;;;;14.00;10.50;;;8.40;99.90;;;;;;4994008;28;20234;-92
2021/03/26 06:15:08;;;;;;;15.20;11.30;;;8.40;99.90;;;;;;4991637;28;20266;-77
2021/03/26 06:18:06;;;;;;;12.93;10.07;;;8.40;99.90;;;;;;5001712;28;20225;-93
2021/03/26 06:20:50;;;;;;;16.33;9.77;;;8.50;99.90;;;;;;5030552;28;20209;-77
2021/03/26 06:24:22;;;;;;;17.17;9.93;;;8.50;99.90;;;;;;5033242;28;20350;-93
2021/03/26 06:27:00;;;;;;;16.87;10.53;;;8.50;99.90;;;;;;4875630;29;20230;-94
2021/03/26 06:29:39;;;;;;;18.37;10.60;;;8.60;99.90;;;;;;4875086;29;20211;-89
2021/03/26 06:32:41;;;;;;;16.10;11.03;;;8.60;99.90;;;;;;4961754;28;20553;-88
2021/03/26 06:35:52;;;;;;;16.37;10.30;;;8.60;99.90;;;;;;5003278;28;20650;-89
2021/03/26 06:38:50;;;;;;;20.90;11.43;;;8.70;99.90;;;;;;5008174;28;20679;-83
2021/03/26 06:41:25;;;;;;;15.20;10.80;;;8.70;99.90;;;;;;5010503;28;20195;-91
2021/03/26 06:44:37;;;;;;;17.00;12.10;;;8.70;99.90;;;;;;5011795;28;20658;-92
2021/03/26 06:47:12;;;;;;;14.87;10.37;;;8.70;99.90;;;;;;5010814;28;20242;-91
2021/03/26 06:49:48;;;;;;;17.03;10.63;;;8.80;99.90;;;;;;4993236;28;20289;-80
2021/03/26 06:52:32;;;;;;;16.40;10.97;;;8.80;99.90;;;;;;4991252;28;20299;-89
2021/03/26 06:55:37;;;;;;;17.77;10.00;;;8.80;99.90;;;;;;4990762;28;20239;-92
2021/03/26 06:58:51;;;;;;;16.10;11.07;;;8.90;99.90;;;;;;5001981;28;20207;-93
2021/03/26 07:01:38;;;;;;;17.30;11.10;;;8.90;99.90;;;;;;4929307;29;20213;-83
2021/03/26 07:04:40;;;;;;;17.37;10.50;;;9.00;99.90;;;;;;4931644;29;20206;-90
2021/03/26 07:07:38;;;;;;;18.80;10.57;;;9.10;99.90;;;;;;5003791;28;20605;-91
2021/03/26 07:10:22;;;;;;;20.70;10.43;;;9.10;99.90;;;;;;5010877;28;20223;-86
2021/03/26 07:13:16;;;;;;;18.07;11.70;;;9.20;99.90;;;;;;5009330;28;20192;-87
2021/03/26 07:15:49;;;;;;;20.83;11.93;;;9.30;99.90;;;;;;5008659;28;20624;-78
2021/03/26 07:18:38;;;;;;;19.00;13.43;;;9.30;99.90;;;;;;4994741;28;20231;-94
2021/03/26 07:21:19;;;;;;;20.47;13.70;;;9.40;99.90;;;;;;5001858;28;20207;-94
2021/03/26 07:24:15;;;;;;;22.97;14.83;;;9.40;99.90;;;;;;5007591;28;20226;-87
2021/03/26 07:27:03;;;;;;;22.27;15.37;;;9.40;99.90;;;;;;5010369;28;20494;-92
2021/03/26 07:29:54;;;;;;;21.63;15.23;;;9.40;99.90;;;;;;4998469;28;20210;-85
2021/03/26 07:32:42;;;;;;;27.23;15.23;;;9.40;99.90;;;;;;5008735;28;20218;-90
2021/03/26 07:35:28;;;;;;;20.47;14.87;;;9.40;99.90;;;;;;5008855;28;20630;-82
2021/03/26 07:38:16;;;;;;;28.97;15.77;;;9.30;99.90;;;;;;5007567;28;20210;-77
2021/03/26 07:40:57;;;;;;;23.27;15.17;;;9.30;99.90;;;;;;5008897;28;20195;-89
2021/03/26 07:43:55;;;;;;;23.50;14.87;;;9.30;99.90;;;;;;5015973;28;20213;-78
2021/03/26 07:46:38;;;;;;;20.90;13.47;;;9.40;99.90;;;;;;5026667;28;20203;-88
2021/03/26 07:49:25;;;;;;;22.53;14.43;;;9.50;99.90;;;;;;5029525;28;20199;-86
2021/03/26 07:51:56;;;;;;;20.07;14.17;;;9.60;99.90;;;;;;5001485;28;20640;-90
2021/03/26 07:54:39;;;;;;;17.13;12.67;;;9.70;99.90;;;;;;5008128;28;20194;-91
2021/03/26 07:57:17;;;;;;;17.23;11.90;;;9.80;99.90;;;;;;5007647;28;20257;-77
2021/03/26 08:00:06;;;;;;;18.87;12.67;;;9.90;99.90;;;;;;5005574;28;20240;-90
2021/03/26 08:02:58;;;;;;;20.43;13.37;;;10.00;99.90;;;;;;5006310;28;20199;-80
2021/03/26 08:05:30;;;;;;;20.97;12.17;;;10.00;99.90;;;;;;5005568;28;20211;-93
2021/03/26 08:08:14;;;;;;;19.30;11.97;;;10.10;99.90;;;;;;5026184;28;20226;-94
2021/03/26 08:10:49;;;;;;;19.10;13.10;;;10.10;99.90;;;;;;5027139;28;20759;-82
2021/03/26 08:13:45;;;;;;;21.63;13.10;;;10.20;99.90;;;;;;5022179;28;20206;-79
2021/03/26 08:20:24;;;;;;;18.50;11.30;;;10.40;99.90;;;;;;4824678;29;20215;-93
2021/03/26 08:23:10;;;;;;;19.30;10.40;;;10.60;99.90;;;;;;4971802;28;20207;-82
2021/03/26 08:25:41;;;;;;;20.57;11.20;;;10.70;99.90;;;;;;5025885;28;20234;-85
2021/03/26 08:28:31;;;;;;;15.80;10.37;;;10.90;99.90;;;;;;5031497;28;20238;-78
2021/03/26 08:31:20;;;;;;;16.83;10.87;;;10.90;99.90;;;;;;5026489;28;20210;-82
2021/03/26 08:34:11;;;;;;;13.67;9.83;;;11.00;99.90;;;;;;5009828;28;20199;-84
2021/03/26 09:41:45;;;;;;;9.43;5.17;;;14.50;99.90;;;;;;4825329;29;20659;-90
2021/03/26 09:44:24;;;;;;;7.27;4.50;;;14.70;99.90;;;;;;4892626;29;20266;-86
2021/03/26 09:46:55;;;;;;;7.87;5.47;;;14.90;99.90;;;;;;4930416;29;20288;-83
2021/03/26 09:49:27;;;;;;;10.60;4.90;;;14.90;99.90;;;;;;4967699;28;20200;-77
2021/03/26 09:51:57;;;;;;;8.47;4.77;;;15.00;99.90;;;;;;4984994;28;20259;-89
2021/03/26 09:54:35;;;;;;;8.83;4.83;;;15.00;99.90;;;;;;4994965;28;20558;-85
2021/03/26 09:57:25;;;;;;;9.10;4.20;;;15.20;99.90;;;;;;4991449;28;20196;-85
2021/03/26 10:00:05;;;;;;;8.13;5.30;;;15.50;99.90;;;;;;4991892;28;20215;-88
2021/03/26 10:02:36;;;;;;;10.37;5.20;;;15.50;99.90;;;;;;4986653;28;20203;-84
2021/03/26 10:05:12;;;;;;;6.23;4.07;;;15.60;99.90;;;;;;4982276;28;20209;-81
2021/03/26 10:07:44;;;;;;;6.87;4.57;;;15.90;99.90;;;;;;4980255;28;20223;-92
2021/03/26 10:13:09;;;;;;;10.30;5.13;;;15.90;99.90;;;;;;4988176;28;20183;-92
2021/03/26 10:15:38;;;;;;;7.90;3.93;;;15.70;99.90;;;;;;4987223;28;20211;-79
2021/03/26 10:18:10;;;;;;;5.67;3.67;;;15.70;99.90;;;;;;4983141;28;20722;-80
2021/03/26 10:20:43;;;;;;;7.50;3.70;;;15.60;99.90;;;;;;4980340;28;20584;-78
2021/03/26 10:23:30;;;;;;;5.83;3.43;;;15.60;99.90;;;;;;4981828;28;20203;-82
2021/03/26 10:26:17;;;;;;;7.73;3.33;;;15.30;99.90;;;;;;4990377;23;20212;-82
2021/03/26 10:29:12;;;;;;;7.63;3.77;;;15.20;99.90;;;;;;4964097;28;20233;-83
2021/03/26 10:31:39;;;;;;;7.30;3.90;;;15.00;99.90;;;;;;4964548;28;20209;-80
2021/03/26 10:34:08;;;;;;;6.80;4.23;;;14.90;99.90;;;;;;4963837;28;20208;-78
2021/03/26 10:36:43;;;;;;;8.47;4.47;;;15.10;99.90;;;;;;4964099;28;20212;-79
2021/03/26 10:39:12;;;;;;;5.50;3.80;;;15.50;99.90;;;;;;4963184;28;20201;-78
2021/03/26 10:41:54;;;;;;;7.10;3.78;;;15.80;99.90;;;;;;4964245;28;20220;-82
2021/03/26 10:44:33;;;;;;;8.93;4.17;;;16.10;99.90;;;;;;4964237;28;20231;-82
2021/03/26 10:47:10;;;;;;;10.37;4.33;;;16.20;99.90;;;;;;4963881;28;20224;-81
2021/03/26 10:49:42;;;;;;;7.90;4.30;;;16.40;99.90;;;;;;4963833;28;20598;-80
2021/03/26 10:52:13;;;;;;;8.00;4.90;;;16.50;99.90;;;;;;4964188;28;20755;-82
2021/03/26 10:54:48;;;;;;;5.55;3.90;;;16.50;99.90;;;;;;4964093;28;20227;-80
2021/03/26 10:57:24;;;;;;;9.82;4.18;;;16.30;99.90;;;;;;4963435;28;20223;-80
2021/03/26 11:00:00;;;;;;;10.07;4.43;;;16.40;99.90;;;;;;4962324;28;20212;-78
2021/03/26 11:02:45;;;;;;;8.07;4.33;;;16.20;99.90;;;;;;4963850;28;20215;-78
2021/03/26 11:05:41;;;;;;;5.50;3.50;;;16.30;99.90;;;;;;4964454;28;20228;-77
2021/03/26 11:08:29;;;;;;;8.07;3.93;;;16.30;99.90;;;;;;4964411;28;20651;-83
2021/03/26 11:11:02;;;;;;;8.90;4.50;;;16.40;99.90;;;;;;4973304;28;20236;-82
2021/03/26 11:13:38;;;;;;;8.27;3.87;;;16.40;99.90;;;;;;4963355;28;20204;-85
2021/03/26 11:16:14;;;;;;;28.47;9.67;;;16.40;99.90;;;;;;4964934;28;20200;-84
2021/03/26 11:18:54;;;;;;;10.17;4.63;;;16.40;99.90;;;;;;4967873;28;20200;-81
2021/03/26 11:21:23;;;;;;;25.73;8.73;;;16.40;99.90;;;;;;4976784;28;20195;-84
2021/03/26 11:23:59;;;;;;;10.37;5.00;;;16.20;99.90;;;;;;4972712;28;20296;-82
2021/03/26 11:26:30;;;;;;;7.67;3.87;;;16.20;99.90;;;;;;4950156;29;20232;-88
2021/03/26 11:29:05;;;;;;;15.87;5.20;;;16.40;99.90;;;;;;4944694;29;20209;-86
2021/03/26 11:31:35;;;;;;;16.03;6.00;;;16.60;99.90;;;;;;4948815;29;20235;-87
2021/03/26 11:34:39;;;;;;;15.82;4.82;;;16.70;99.90;;;;;;4950777;29;20186;-83
2021/03/26 11:37:16;;;;;;;9.07;4.47;;;16.50;99.90;;;;;;4944562;29;20228;-82
2021/03/26 11:39:51;;;;;;;8.60;4.90;;;16.50;99.90;;;;;;4948843;29;20211;-84
2021/03/26 11:42:35;;;;;;;12.40;5.30;;;16.30;99.90;;;;;;4947446;29;20260;-82
2021/03/26 11:45:14;;;;;;;14.10;5.90;;;16.00;99.90;;;;;;4948137;29;20272;-83
2021/03/26 11:47:44;;;;;;;9.20;5.37;;;15.80;99.90;;;;;;4948856;29;20225;-86
2021/03/26 11:50:21;;;;;;;12.93;5.47;;;15.60;99.90;;;;;;4948781;29;20267;-87
2021/03/26 11:53:19;;;;;;;14.90;6.53;;;15.70;99.90;;;;;;4949497;29;20201;-84
2021/03/26 11:56:02;;;;;;;17.23;5.73;;;15.80;99.90;;;;;;4948350;29;20208;-83
2021/03/26 11:58:35;;;;;;;26.67;8.53;;;15.70;99.90;;;;;;4929671;29;20285;-84
2021/03/26 12:01:08;;;;;;;14.50;6.73;;;15.70;99.90;;;;;;4934313;29;20522;-82
2021/03/26 12:03:42;;;;;;;12.07;6.13;;;15.70;99.90;;;;;;4950122;29;20299;-84
2021/03/26 12:06:22;;;;;;;11.00;5.33;;;15.60;99.90;;;;;;4947945;29;20201;-84
2021/03/26 12:08:57;;;;;;;11.20;5.40;;;15.50;99.90;;;;;;4967290;28;20208;-83
2021/03/26 12:11:31;;;;;;;10.53;4.73;;;15.70;99.90;;;;;;4954057;28;20200;-85
2021/03/26 12:14:09;;;;;;;9.93;5.40;;;15.80;99.90;;;;;;4950990;29;20193;-83
2021/03/26 12:16:41;;;;;;;9.60;5.90;;;15.80;99.90;;;;;;4932321;29;20224;-83
2021/03/26 12:19:16;;;;;;;9.20;5.43;;;15.90;99.90;;;;;;4931092;29;20205;-85
2021/03/26 12:21:51;;;;;;;13.40;5.17;;;16.00;99.90;;;;;;4935347;29;20204;-82
2021/03/26 12:24:26;;;;;;;9.40;4.50;;;16.10;99.90;;;;;;4948028;29;20204;-83
2021/03/26 12:27:16;;;;;;;10.93;5.10;;;15.90;99.90;;;;;;4956249;28;20354;-84
2021/03/26 12:29:49;;;;;;;12.40;4.50;;;15.90;99.90;;;;;;4965395;28;20227;-83
2021/03/26 12:32:25;;;;;;;10.13;4.30;;;15.80;99.90;;;;;;4967436;28;20201;-85
2021/03/26 12:35:14;;;;;;;10.15;4.72;;;15.80;99.90;;;;;;4966757;28;20204;-84
2021/03/26 12:37:47;;;;;;;11.93;4.20;;;15.90;99.90;;;;;;4964229;28;20208;-80
2021/03/26 12:40:28;;;;;;;14.63;4.77;;;16.10;99.90;;;;;;4967216;28;20219;-83
2021/03/26 12:43:01;;;;;;;11.43;4.23;;;16.20;99.90;;;;;;4967507;28;20278;-83
2021/03/26 12:45:35;;;;;;;23.33;7.23;;;16.20;99.90;;;;;;4967175;28;20235;-82
2021/03/26 12:48:06;;;;;;;15.90;6.70;;;16.10;99.90;;;;;;4966576;28;20240;-85
2021/03/26 12:50:37;;;;;;;21.25;7.55;;;15.90;99.90;;;;;;4968244;28;20204;-85
2021/03/26 12:53:09;;;;;;;38.78;13.57;;;15.70;99.90;;;;;;4967854;28;20212;-90
2021/03/26 12:55:52;;;;;;;45.33;13.03;;;15.70;99.90;;;;;;4966679;28;20661;-88
2021/03/26 12:58:42;;;;;;;29.33;8.25;;;15.80;99.90;;;;;;4966792;28;20428;-81
2021/03/26 13:01:14;;;;;;;29.27;11.43;;;15.70;99.90;;;;;;4971751;28;20220;-87
2021/03/26 13:03:47;;;;;;;10.60;4.80;;;15.60;99.90;;;;;;4970822;28;20196;-84
2021/03/26 13:06:19;;;;;;;11.70;4.17;;;15.50;99.90;;;;;;4968748;28;20209;-84
2021/03/26 13:08:48;;;;;;;8.83;3.97;;;15.50;99.90;;;;;;4959315;28;20554;-89
2021/03/26 13:11:23;;;;;;;6.87;3.83;;;15.60;99.90;;;;;;4972394;28;20215;-84
2021/03/26 13:14:03;;;;;;;11.18;4.13;;;15.70;99.90;;;;;;4968809;28;20211;-83
2021/03/26 13:16:41;;;;;;;10.97;4.23;;;15.70;99.90;;;;;;4971428;28;20204;-89
2021/03/26 13:19:16;;;;;;;8.00;3.70;;;15.60;99.90;;;;;;4972335;28;20212;-83
2021/03/26 13:21:51;;;;;;;9.67;3.70;;;15.50;99.90;;;;;;4973064;28;20537;-87
2021/03/26 13:24:31;;;;;;;10.07;3.70;;;15.30;99.90;;;;;;4971288;28;20201;-85
2021/03/26 13:27:41;;;;;;;10.17;3.77;;;15.20;99.90;;;;;;4970743;28;20236;-86
2021/03/26 13:30:22;;;;;;;8.70;3.60;;;15.00;99.90;;;;;;4969969;28;20193;-91
2021/03/26 13:33:16;;;;;;;8.83;3.70;;;14.90;99.90;;;;;;4958966;28;20208;-84
2021/03/26 13:35:57;;;;;;;8.67;3.20;;;14.80;99.90;;;;;;4970755;28;20280;-88
2021/03/26 13:38:57;;;;;;;8.87;3.33;;;14.80;99.90;;;;;;4966571;28;20201;-86
2021/03/26 13:42:17;;;;;;;6.00;3.37;;;14.80;99.90;;;;;;4949664;29;20233;-85
2021/03/26 13:45:04;;;;;;;6.33;3.17;;;14.70;99.90;;;;;;4864814;29;20208;-85
2021/03/26 13:47:42;;;;;;;44.90;13.97;;;14.80;99.90;;;;;;4967902;28;20262;-89
2021/03/26 13:50:18;;;;;;;34.47;11.40;;;14.80;99.90;;;;;;4971602;28;20203;-83
2021/03/26 13:52:50;;;;;;;7.10;3.10;;;14.90;99.90;;;;;;4972535;28;20238;-87
2021/03/26 13:55:23;;;;;;;23.93;9.37;;;14.90;99.90;;;;;;4972515;28;20193;-86
2021/03/26 13:58:01;;;;;;;8.37;3.47;;;14.90;99.90;;;;;;4971319;28;20197;-84
2021/03/26 14:00:30;;;;;;;7.83;3.80;;;15.00;99.90;;;;;;4971875;28;20270;-85
2021/03/26 14:03:01;;;;;;;8.27;3.70;;;15.00;99.90;;;;;;4972141;28;20243;-84
2021/03/26 14:05:39;;;;;;;8.93;3.63;;;15.00;99.90;;;;;;4971019;28;20212;-87
2021/03/26 14:08:12;;;;;;;7.23;3.20;;;14.90;99.90;;;;;;4972319;28;20220;-84
2021/03/26 14:10:48;;;;;;;6.63;3.53;;;15.00;99.90;;;;;;4969658;28;20637;-85
2021/03/26 14:13:20;;;;;;;8.37;3.77;;;14.90;99.90;;;;;;4969463;28;20200;-84
2021/03/26 14:16:04;;;;;;;9.27;4.07;;;14.90;99.90;;;;;;4969406;28;20220;-82
2021/03/26 14:18:33;;;;;;;7.33;3.73;;;14.90;99.90;;;;;;4966731;28;20196;-83
2021/03/26 14:21:26;;;;;;;15.37;6.57;;;14.90;99.90;;;;;;4956490;28;20209;-82
2021/03/26 14:23:57;;;;;;;66.37;18.97;;;14.90;99.90;;;;;;4963020;28;20336;-84
2021/03/26 14:26:31;;;;;;;6.60;3.53;;;14.90;99.90;;;;;;4964072;28;20244;-79
2021/03/26 14:29:03;;;;;;;89.80;29.70;;;14.90;99.90;;;;;;4962720;28;20224;-82
2021/03/26 14:31:35;;;;;;;9.80;4.00;;;14.90;99.90;;;;;;4961686;28;20583;-82
2021/03/26 14:34:06;;;;;;;10.63;5.30;;;14.90;99.90;;;;;;4967384;28;20500;-81
2021/03/26 14:36:38;;;;;;;7.83;3.20;;;14.90;99.90;;;;;;4964465;28;20209;-78
2021/03/26 14:39:07;;;;;;;6.83;2.77;;;14.90;99.90;;;;;;4965104;28;20197;-83
2021/03/26 14:41:36;;;;;;;7.83;3.13;;;14.90;99.90;;;;;;4963616;28;20240;-79
2021/03/26 14:44:16;;;;;;;4.07;2.90;;;14.80;99.90;;;;;;4963858;28;20248;-77